sensor_id;sensor_type;location;lat;lon;timestamp;P1;durP1;ratioP1;P2;durP2;ratioP2
78308;SDS011;67566;42.022;21.356;2023-05-15T00:01:15;11.40;;;8.88;;
78308;SDS011;67566;42.022;21.356;2023-05-15T00:03:41;11.63;;;8.48;;
78308;SDS011;67566;42.022;21.356;2023-05-15T00:06:07;9.20;;;7.82;;
78308;SDS011;67566;42.022;21.356;2023-05-15T00:08:33;11.82;;;8.63;;
78308;SDS011;67566;42.022;21.356;2023-05-15T00:10:58;13.50;;;9.63;;
78308;SDS011;67566;42.022;21.356;2023-05-15T00:13:24;10.60;;;9.10;;
78308;SDS011;67566;42.022;21.356;2023-05-15T00:15:52;14.10;;;9.23;;
78308;SDS011;67566;42.022;21.356;2023-05-15T00:18:17;10.70;;;8.88;;
78308;SDS011;67566;42.022;21.356;2023-05-15T00:20:43;13.27;;;9.43;;
78308;SDS011;67566;42.022;21.356;2023-05-15T00:23:08;14.82;;;10.27;;
78308;SDS011;67566;42.022;21.356;2023-05-15T00:25:34;15.73;;;10.73;;
78308;SDS011;67566;42.022;21.356;2023-05-15T00:27:59;13.85;;;10.50;;
78308;SDS011;67566;42.022;21.356;2023-05-15T00:30:25;13.18;;;11.27;;
78308;SDS011;67566;42.022;21.356;2023-05-15T00:32:50;16.52;;;11.70;;
78308;SDS011;67566;42.022;21.356;2023-05-15T00:35:16;17.50;;;12.52;;
78308;SDS011;67566;42.022;21.356;2023-05-15T00:37:41;14.40;;;11.18;;
78308;SDS011;67566;42.022;21.356;2023-05-15T00:40:08;14.80;;;11.70;;
78308;SDS011;67566;42.022;21.356;2023-05-15T00:42:36;12.95;;;9.98;;
78308;SDS011;67566;42.022;21.356;2023-05-15T00:45:02;13.95;;;10.25;;
78308;SDS011;67566;42.022;21.356;2023-05-15T00:47:31;17.08;;;11.20;;
78308;SDS011;67566;42.022;21.356;2023-05-15T00:49:58;13.85;;;10.32;;
78308;SDS011;67566;42.022;21.356;2023-05-15T00:52:24;16.67;;;10.38;;
78308;SDS011;67566;42.022;21.356;2023-05-15T00:54:50;15.75;;;10.98;;
78308;SDS011;67566;42.022;21.356;2023-05-15T00:57:16;17.58;;;10.63;;
78308;SDS011;67566;42.022;21.356;2023-05-15T00:59:42;13.48;;;9.48;;
78308;SDS011;67566;42.022;21.356;2023-05-15T01:02:09;11.48;;;8.73;;
78308;SDS011;67566;42.022;21.356;2023-05-15T01:04:36;12.52;;;8.25;;
78308;SDS011;67566;42.022;21.356;2023-05-15T01:07:01;10.80;;;8.70;;
78308;SDS011;67566;42.022;21.356;2023-05-15T01:09:27;14.45;;;8.45;;
78308;SDS011;67566;42.022;21.356;2023-05-15T01:11:55;12.15;;;9.88;;
78308;SDS011;67566;42.022;21.356;2023-05-15T01:14:24;11.70;;;9.20;;
78308;SDS011;67566;42.022;21.356;2023-05-15T01:16:51;12.15;;;9.40;;
78308;SDS011;67566;42.022;21.356;2023-05-15T01:19:16;12.40;;;9.50;;
78308;SDS011;67566;42.022;21.356;2023-05-15T01:27:06;12.52;;;8.75;;
78308;SDS011;67566;42.022;21.356;2023-05-15T01:29:54;16.10;;;8.55;;
78308;SDS011;67566;42.022;21.356;2023-05-15T01:32:52;14.30;;;8.95;;
78308;SDS011;67566;42.022;21.356;2023-05-15T01:37:45;11.90;;;7.60;;
78308;SDS011;67566;42.022;21.356;2023-05-15T01:40:15;10.52;;;6.68;;
78308;SDS011;67566;42.022;21.356;2023-05-15T01:42:47;12.35;;;7.15;;
78308;SDS011;67566;42.022;21.356;2023-05-15T01:45:16;12.02;;;8.27;;
78308;SDS011;67566;42.022;21.356;2023-05-15T01:47:43;9.80;;;6.90;;
78308;SDS011;67566;42.022;21.356;2023-05-15T01:50:12;10.30;;;7.65;;
78308;SDS011;67566;42.022;21.356;2023-05-15T01:52:44;10.13;;;7.40;;
78308;SDS011;67566;42.022;21.356;2023-05-15T01:55:13;14.88;;;7.60;;
78308;SDS011;67566;42.022;21.356;2023-05-15T01:57:40;10.38;;;7.45;;
78308;SDS011;67566;42.022;21.356;2023-05-15T02:00:07;14.45;;;8.15;;
78308;SDS011;67566;42.022;21.356;2023-05-15T02:02:35;14.75;;;7.18;;
78308;SDS011;67566;42.022;21.356;2023-05-15T02:05:02;11.27;;;7.80;;
78308;SDS011;67566;42.022;21.356;2023-05-15T02:07:28;13.68;;;8.55;;
78308;SDS011;67566;42.022;21.356;2023-05-15T02:09:55;10.98;;;7.72;;
78308;SDS011;67566;42.022;21.356;2023-05-15T02:12:23;17.70;;;8.73;;
78308;SDS011;67566;42.022;21.356;2023-05-15T02:14:49;13.32;;;8.38;;
78308;SDS011;67566;42.022;21.356;2023-05-15T02:17:16;12.57;;;8.75;;
78308;SDS011;67566;42.022;21.356;2023-05-15T02:19:41;12.30;;;8.38;;
78308;SDS011;67566;42.022;21.356;2023-05-15T02:22:07;12.80;;;9.75;;
78308;SDS011;67566;42.022;21.356;2023-05-15T02:24:33;10.68;;;8.68;;
78308;SDS011;67566;42.022;21.356;2023-05-15T02:27:19;11.18;;;7.55;;
78308;SDS011;67566;42.022;21.356;2023-05-15T02:38:02;12.23;;;8.02;;
78308;SDS011;67566;42.022;21.356;2023-05-15T02:40:33;11.35;;;9.10;;
78308;SDS011;67566;42.022;21.356;2023-05-15T02:43:01;13.63;;;8.57;;
78308;SDS011;67566;42.022;21.356;2023-05-15T02:45:27;13.52;;;7.82;;
78308;SDS011;67566;42.022;21.356;2023-05-15T02:47:53;11.80;;;7.95;;
78308;SDS011;67566;42.022;21.356;2023-05-15T02:50:20;11.45;;;8.48;;
78308;SDS011;67566;42.022;21.356;2023-05-15T02:52:46;11.55;;;7.78;;
78308;SDS011;67566;42.022;21.356;2023-05-15T02:55:11;15.13;;;9.18;;
78308;SDS011;67566;42.022;21.356;2023-05-15T02:57:37;12.23;;;7.63;;
78308;SDS011;67566;42.022;21.356;2023-05-15T03:00:02;12.10;;;7.80;;
78308;SDS011;67566;42.022;21.356;2023-05-15T03:02:31;8.75;;;6.90;;
78308;SDS011;67566;42.022;21.356;2023-05-15T03:04:56;12.50;;;7.32;;
78308;SDS011;67566;42.022;21.356;2023-05-15T03:07:22;12.65;;;8.27;;
78308;SDS011;67566;42.022;21.356;2023-05-15T03:09:47;10.10;;;7.88;;
78308;SDS011;67566;42.022;21.356;2023-05-15T03:12:13;14.15;;;8.43;;
78308;SDS011;67566;42.022;21.356;2023-05-15T03:14:38;8.98;;;7.05;;
78308;SDS011;67566;42.022;21.356;2023-05-15T03:17:04;9.23;;;8.20;;
78308;SDS011;67566;42.022;21.356;2023-05-15T03:19:29;11.73;;;8.05;;
78308;SDS011;67566;42.022;21.356;2023-05-15T03:21:55;14.48;;;9.73;;
78308;SDS011;67566;42.022;21.356;2023-05-15T03:24:20;20.05;;;10.57;;
78308;SDS011;67566;42.022;21.356;2023-05-15T03:26:46;13.98;;;9.90;;
78308;SDS011;67566;42.022;21.356;2023-05-15T03:29:11;15.43;;;11.23;;
78308;SDS011;67566;42.022;21.356;2023-05-15T03:31:37;15.40;;;11.85;;
78308;SDS011;67566;42.022;21.356;2023-05-15T03:34:02;15.82;;;11.60;;
78308;SDS011;67566;42.022;21.356;2023-05-15T03:36:28;17.17;;;10.95;;
78308;SDS011;67566;42.022;21.356;2023-05-15T03:38:53;17.67;;;12.05;;
78308;SDS011;67566;42.022;21.356;2023-05-15T03:41:19;15.00;;;10.65;;
78308;SDS011;67566;42.022;21.356;2023-05-15T03:43:45;13.60;;;10.52;;
78308;SDS011;67566;42.022;21.356;2023-05-15T03:46:10;14.85;;;11.30;;
78308;SDS011;67566;42.022;21.356;2023-05-15T03:48:36;15.88;;;11.05;;
78308;SDS011;67566;42.022;21.356;2023-05-15T03:51:01;12.93;;;10.10;;
78308;SDS011;67566;42.022;21.356;2023-05-15T03:53:27;11.02;;;8.38;;
78308;SDS011;67566;42.022;21.356;2023-05-15T03:55:53;12.20;;;9.05;;
78308;SDS011;67566;42.022;21.356;2023-05-15T03:58:18;12.70;;;9.75;;
78308;SDS011;67566;42.022;21.356;2023-05-15T04:00:44;12.68;;;8.73;;
78308;SDS011;67566;42.022;21.356;2023-05-15T04:03:09;10.27;;;7.57;;
78308;SDS011;67566;42.022;21.356;2023-05-15T04:05:35;11.65;;;8.05;;
78308;SDS011;67566;42.022;21.356;2023-05-15T04:08:00;11.23;;;8.88;;
78308;SDS011;67566;42.022;21.356;2023-05-15T04:10:26;15.23;;;9.40;;
78308;SDS011;67566;42.022;21.356;2023-05-15T04:12:52;14.27;;;9.35;;
78308;SDS011;67566;42.022;21.356;2023-05-15T04:15:18;13.52;;;9.15;;
78308;SDS011;67566;42.022;21.356;2023-05-15T04:17:51;12.20;;;9.45;;
78308;SDS011;67566;42.022;21.356;2023-05-15T04:20:18;11.15;;;8.50;;
78308;SDS011;67566;42.022;21.356;2023-05-15T04:22:45;11.02;;;8.48;;
78308;SDS011;67566;42.022;21.356;2023-05-15T04:25:11;10.93;;;8.23;;
78308;SDS011;67566;42.022;21.356;2023-05-15T04:27:38;11.80;;;9.07;;
78308;SDS011;67566;42.022;21.356;2023-05-15T04:30:05;12.98;;;9.45;;
78308;SDS011;67566;42.022;21.356;2023-05-15T04:32:31;11.25;;;8.18;;
78308;SDS011;67566;42.022;21.356;2023-05-15T04:35:01;14.13;;;9.15;;
78308;SDS011;67566;42.022;21.356;2023-05-15T04:37:27;13.07;;;9.00;;
78308;SDS011;67566;42.022;21.356;2023-05-15T04:39:53;13.27;;;9.80;;
78308;SDS011;67566;42.022;21.356;2023-05-15T04:42:19;11.38;;;8.63;;
78308;SDS011;67566;42.022;21.356;2023-05-15T04:44:45;12.27;;;9.00;;
78308;SDS011;67566;42.022;21.356;2023-05-15T04:47:10;11.32;;;8.52;;
78308;SDS011;67566;42.022;21.356;2023-05-15T04:49:36;12.00;;;9.75;;
78308;SDS011;67566;42.022;21.356;2023-05-15T04:52:02;11.80;;;9.23;;
78308;SDS011;67566;42.022;21.356;2023-05-15T04:54:28;9.57;;;8.30;;
78308;SDS011;67566;42.022;21.356;2023-05-15T04:56:53;13.18;;;9.35;;
78308;SDS011;67566;42.022;21.356;2023-05-15T04:59:19;12.88;;;8.88;;
78308;SDS011;67566;42.022;21.356;2023-05-15T05:01:44;14.68;;;9.55;;
78308;SDS011;67566;42.022;21.356;2023-05-15T05:04:10;14.07;;;8.13;;
78308;SDS011;67566;42.022;21.356;2023-05-15T05:06:35;11.80;;;9.23;;
78308;SDS011;67566;42.022;21.356;2023-05-15T05:09:01;13.35;;;9.93;;
78308;SDS011;67566;42.022;21.356;2023-05-15T05:11:27;14.10;;;9.45;;
78308;SDS011;67566;42.022;21.356;2023-05-15T05:13:52;12.50;;;8.85;;
78308;SDS011;67566;42.022;21.356;2023-05-15T05:16:18;10.45;;;8.50;;
78308;SDS011;67566;42.022;21.356;2023-05-15T05:18:44;12.00;;;9.10;;
78308;SDS011;67566;42.022;21.356;2023-05-15T05:21:09;13.82;;;8.35;;
78308;SDS011;67566;42.022;21.356;2023-05-15T05:23:35;10.43;;;7.30;;
78308;SDS011;67566;42.022;21.356;2023-05-15T05:26:01;10.00;;;7.85;;
78308;SDS011;67566;42.022;21.356;2023-05-15T05:28:27;11.50;;;6.95;;
78308;SDS011;67566;42.022;21.356;2023-05-15T05:30:52;13.73;;;8.57;;
78308;SDS011;67566;42.022;21.356;2023-05-15T05:33:18;10.80;;;6.75;;
78308;SDS011;67566;42.022;21.356;2023-05-15T05:35:43;12.52;;;7.78;;
78308;SDS011;67566;42.022;21.356;2023-05-15T05:38:09;11.98;;;7.57;;
78308;SDS011;67566;42.022;21.356;2023-05-15T05:40:34;10.82;;;7.57;;
78308;SDS011;67566;42.022;21.356;2023-05-15T05:43:02;10.38;;;7.13;;
78308;SDS011;67566;42.022;21.356;2023-05-15T05:45:28;10.93;;;8.20;;
78308;SDS011;67566;42.022;21.356;2023-05-15T05:47:54;11.40;;;7.88;;
78308;SDS011;67566;42.022;21.356;2023-05-15T05:50:20;11.20;;;7.82;;
78308;SDS011;67566;42.022;21.356;2023-05-15T05:52:46;13.00;;;6.97;;
78308;SDS011;67566;42.022;21.356;2023-05-15T05:55:12;7.47;;;6.15;;
78308;SDS011;67566;42.022;21.356;2023-05-15T05:57:39;11.55;;;7.82;;
78308;SDS011;67566;42.022;21.356;2023-05-15T06:00:04;11.48;;;7.47;;
78308;SDS011;67566;42.022;21.356;2023-05-15T06:02:35;11.05;;;7.57;;
78308;SDS011;67566;42.022;21.356;2023-05-15T06:05:02;7.82;;;6.43;;
78308;SDS011;67566;42.022;21.356;2023-05-15T06:07:28;10.05;;;6.90;;
78308;SDS011;67566;42.022;21.356;2023-05-15T06:09:53;12.20;;;8.20;;
78308;SDS011;67566;42.022;21.356;2023-05-15T06:12:19;11.25;;;6.68;;
78308;SDS011;67566;42.022;21.356;2023-05-15T06:14:44;13.73;;;8.13;;
78308;SDS011;67566;42.022;21.356;2023-05-15T06:17:10;11.68;;;7.53;;
78308;SDS011;67566;42.022;21.356;2023-05-15T06:19:36;12.85;;;7.95;;
78308;SDS011;67566;42.022;21.356;2023-05-15T06:22:01;13.30;;;7.88;;
78308;SDS011;67566;42.022;21.356;2023-05-15T06:24:27;9.80;;;7.28;;
78308;SDS011;67566;42.022;21.356;2023-05-15T06:26:52;12.38;;;7.65;;
78308;SDS011;67566;42.022;21.356;2023-05-15T06:29:18;13.63;;;7.47;;
78308;SDS011;67566;42.022;21.356;2023-05-15T06:31:43;9.80;;;7.38;;
78308;SDS011;67566;42.022;21.356;2023-05-15T06:34:09;10.70;;;7.75;;
78308;SDS011;67566;42.022;21.356;2023-05-15T06:36:34;12.88;;;8.23;;
78308;SDS011;67566;42.022;21.356;2023-05-15T06:39:01;12.27;;;7.22;;
78308;SDS011;67566;42.022;21.356;2023-05-15T06:41:26;12.02;;;8.05;;
78308;SDS011;67566;42.022;21.356;2023-05-15T06:43:52;11.93;;;8.38;;
78308;SDS011;67566;42.022;21.356;2023-05-15T06:46:19;9.65;;;8.10;;
78308;SDS011;67566;42.022;21.356;2023-05-15T06:48:45;15.02;;;9.02;;
78308;SDS011;67566;42.022;21.356;2023-05-15T06:51:11;12.18;;;7.97;;
78308;SDS011;67566;42.022;21.356;2023-05-15T06:53:37;12.40;;;9.20;;
78308;SDS011;67566;42.022;21.356;2023-05-15T06:56:02;17.20;;;8.88;;
78308;SDS011;67566;42.022;21.356;2023-05-15T06:58:31;10.90;;;8.45;;
78308;SDS011;67566;42.022;21.356;2023-05-15T07:00:56;12.75;;;8.52;;
78308;SDS011;67566;42.022;21.356;2023-05-15T07:03:22;13.40;;;8.55;;
78308;SDS011;67566;42.022;21.356;2023-05-15T07:05:47;14.00;;;8.50;;
78308;SDS011;67566;42.022;21.356;2023-05-15T07:08:13;10.73;;;7.85;;
78308;SDS011;67566;42.022;21.356;2023-05-15T07:10:38;12.35;;;7.10;;
78308;SDS011;67566;42.022;21.356;2023-05-15T07:13:04;13.52;;;8.77;;
78308;SDS011;67566;42.022;21.356;2023-05-15T07:15:29;11.73;;;8.05;;
78308;SDS011;67566;42.022;21.356;2023-05-15T07:17:55;11.60;;;6.95;;
78308;SDS011;67566;42.022;21.356;2023-05-15T07:20:20;9.38;;;7.80;;
78308;SDS011;67566;42.022;21.356;2023-05-15T07:22:46;9.27;;;7.32;;
78308;SDS011;67566;42.022;21.356;2023-05-15T07:25:11;8.95;;;6.55;;
78308;SDS011;67566;42.022;21.356;2023-05-15T07:27:37;9.90;;;6.63;;
78308;SDS011;67566;42.022;21.356;2023-05-15T07:30:02;10.05;;;7.05;;
78308;SDS011;67566;42.022;21.356;2023-05-15T07:32:28;12.82;;;8.23;;
78308;SDS011;67566;42.022;21.356;2023-05-15T07:34:55;13.45;;;7.78;;
78308;SDS011;67566;42.022;21.356;2023-05-15T07:37:21;12.35;;;7.65;;
78308;SDS011;67566;42.022;21.356;2023-05-15T07:39:48;12.88;;;7.30;;
78308;SDS011;67566;42.022;21.356;2023-05-15T07:42:13;12.30;;;7.40;;
78308;SDS011;67566;42.022;21.356;2023-05-15T07:44:39;11.77;;;7.38;;
78308;SDS011;67566;42.022;21.356;2023-05-15T07:47:05;16.75;;;10.18;;
78308;SDS011;67566;42.022;21.356;2023-05-15T07:49:30;11.57;;;7.07;;
78308;SDS011;67566;42.022;21.356;2023-05-15T07:51:56;11.45;;;7.18;;
78308;SDS011;67566;42.022;21.356;2023-05-15T07:54:22;11.13;;;8.32;;
78308;SDS011;67566;42.022;21.356;2023-05-15T07:56:47;14.02;;;8.60;;
78308;SDS011;67566;42.022;21.356;2023-05-15T07:59:13;11.70;;;7.68;;
78308;SDS011;67566;42.022;21.356;2023-05-15T08:01:38;13.02;;;8.68;;
78308;SDS011;67566;42.022;21.356;2023-05-15T08:04:05;13.20;;;8.00;;
78308;SDS011;67566;42.022;21.356;2023-05-15T08:06:32;18.63;;;8.27;;
78308;SDS011;67566;42.022;21.356;2023-05-15T08:08:58;13.57;;;7.75;;
78308;SDS011;67566;42.022;21.356;2023-05-15T08:11:23;12.13;;;7.72;;
78308;SDS011;67566;42.022;21.356;2023-05-15T08:13:49;15.75;;;7.75;;
78308;SDS011;67566;42.022;21.356;2023-05-15T08:16:14;16.65;;;8.48;;
78308;SDS011;67566;42.022;21.356;2023-05-15T08:18:40;12.00;;;7.15;;
78308;SDS011;67566;42.022;21.356;2023-05-15T08:21:05;12.40;;;8.15;;
78308;SDS011;67566;42.022;21.356;2023-05-15T08:23:51;11.75;;;7.70;;
78308;SDS011;67566;42.022;21.356;2023-05-15T08:26:17;12.93;;;7.35;;
78308;SDS011;67566;42.022;21.356;2023-05-15T08:28:42;11.98;;;7.53;;
78308;SDS011;67566;42.022;21.356;2023-05-15T08:31:08;12.80;;;7.95;;
78308;SDS011;67566;42.022;21.356;2023-05-15T08:33:33;10.05;;;8.00;;
78308;SDS011;67566;42.022;21.356;2023-05-15T08:36:03;12.43;;;7.60;;
78308;SDS011;67566;42.022;21.356;2023-05-15T08:38:43;13.05;;;8.40;;
78308;SDS011;67566;42.022;21.356;2023-05-15T08:44:04;11.60;;;8.00;;
78308;SDS011;67566;42.022;21.356;2023-05-15T08:46:33;15.60;;;8.73;;
78308;SDS011;67566;42.022;21.356;2023-05-15T08:48:59;13.10;;;9.82;;
78308;SDS011;67566;42.022;21.356;2023-05-15T08:51:30;19.38;;;11.88;;
78308;SDS011;67566;42.022;21.356;2023-05-15T08:53:56;12.05;;;7.93;;
78308;SDS011;67566;42.022;21.356;2023-05-15T08:56:21;12.68;;;9.02;;
78308;SDS011;67566;42.022;21.356;2023-05-15T08:58:47;11.65;;;7.55;;
78308;SDS011;67566;42.022;21.356;2023-05-15T09:01:13;10.77;;;8.30;;
78308;SDS011;67566;42.022;21.356;2023-05-15T09:03:40;13.77;;;9.30;;
78308;SDS011;67566;42.022;21.356;2023-05-15T09:06:06;17.80;;;9.23;;
78308;SDS011;67566;42.022;21.356;2023-05-15T09:08:34;12.90;;;9.25;;
78308;SDS011;67566;42.022;21.356;2023-05-15T09:11:01;13.73;;;9.25;;
78308;SDS011;67566;42.022;21.356;2023-05-15T09:13:28;14.23;;;8.13;;
78308;SDS011;67566;42.022;21.356;2023-05-15T09:15:55;12.10;;;8.07;;
78308;SDS011;67566;42.022;21.356;2023-05-15T09:18:20;12.63;;;9.30;;
78308;SDS011;67566;42.022;21.356;2023-05-15T09:20:46;11.63;;;7.53;;
78308;SDS011;67566;42.022;21.356;2023-05-15T09:23:25;17.90;;;9.85;;
78308;SDS011;67566;42.022;21.356;2023-05-15T09:25:51;13.93;;;8.95;;
78308;SDS011;67566;42.022;21.356;2023-05-15T09:28:23;22.38;;;12.43;;
78308;SDS011;67566;42.022;21.356;2023-05-15T09:31:00;17.65;;;10.43;;
78308;SDS011;67566;42.022;21.356;2023-05-15T09:33:28;17.40;;;9.05;;
78308;SDS011;67566;42.022;21.356;2023-05-15T09:35:54;12.93;;;8.18;;
78308;SDS011;67566;42.022;21.356;2023-05-15T09:38:20;13.55;;;8.82;;
78308;SDS011;67566;42.022;21.356;2023-05-15T09:40:45;13.93;;;9.40;;
78308;SDS011;67566;42.022;21.356;2023-05-15T09:43:11;13.48;;;9.50;;
78308;SDS011;67566;42.022;21.356;2023-05-15T09:45:36;14.30;;;9.05;;
78308;SDS011;67566;42.022;21.356;2023-05-15T09:48:05;12.35;;;9.35;;
78308;SDS011;67566;42.022;21.356;2023-05-15T09:53:01;12.80;;;8.25;;
78308;SDS011;67566;42.022;21.356;2023-05-15T09:55:26;13.30;;;9.05;;
78308;SDS011;67566;42.022;21.356;2023-05-15T10:00:35;13.77;;;9.73;;
78308;SDS011;67566;42.022;21.356;2023-05-15T10:03:02;14.05;;;10.38;;
78308;SDS011;67566;42.022;21.356;2023-05-15T10:05:32;13.65;;;9.27;;
78308;SDS011;67566;42.022;21.356;2023-05-15T10:07:58;14.15;;;9.95;;
78308;SDS011;67566;42.022;21.356;2023-05-15T10:10:25;12.63;;;9.80;;
78308;SDS011;67566;42.022;21.356;2023-05-15T10:12:52;17.05;;;9.52;;
78308;SDS011;67566;42.022;21.356;2023-05-15T10:15:21;15.45;;;11.15;;
78308;SDS011;67566;42.022;21.356;2023-05-15T10:17:47;20.38;;;11.63;;
78308;SDS011;67566;42.022;21.356;2023-05-15T10:20:18;16.52;;;10.95;;
78308;SDS011;67566;42.022;21.356;2023-05-15T10:22:45;11.35;;;9.25;;
78308;SDS011;67566;42.022;21.356;2023-05-15T10:25:17;13.00;;;9.95;;
78308;SDS011;67566;42.022;21.356;2023-05-15T10:28:02;11.85;;;9.65;;
78308;SDS011;67566;42.022;21.356;2023-05-15T10:30:28;18.33;;;9.52;;
78308;SDS011;67566;42.022;21.356;2023-05-15T10:32:55;12.45;;;8.90;;
78308;SDS011;67566;42.022;21.356;2023-05-15T10:35:22;15.80;;;9.55;;
78308;SDS011;67566;42.022;21.356;2023-05-15T10:37:50;12.05;;;7.80;;
78308;SDS011;67566;42.022;21.356;2023-05-15T10:40:15;11.02;;;8.95;;
78308;SDS011;67566;42.022;21.356;2023-05-15T10:42:43;11.52;;;7.78;;
78308;SDS011;67566;42.022;21.356;2023-05-15T10:45:11;10.73;;;7.32;;
78308;SDS011;67566;42.022;21.356;2023-05-15T10:47:37;11.93;;;6.05;;
78308;SDS011;67566;42.022;21.356;2023-05-15T10:50:04;9.32;;;6.28;;
78308;SDS011;67566;42.022;21.356;2023-05-15T10:52:31;10.05;;;6.10;;
78308;SDS011;67566;42.022;21.356;2023-05-15T10:54:57;8.25;;;5.35;;
78308;SDS011;67566;42.022;21.356;2023-05-15T10:57:23;9.20;;;5.80;;
78308;SDS011;67566;42.022;21.356;2023-05-15T10:59:49;7.43;;;5.68;;
78308;SDS011;67566;42.022;21.356;2023-05-15T11:02:22;9.10;;;5.20;;
78308;SDS011;67566;42.022;21.356;2023-05-15T11:04:53;8.50;;;5.40;;
78308;SDS011;67566;42.022;21.356;2023-05-15T11:07:22;8.95;;;5.18;;
78308;SDS011;67566;42.022;21.356;2023-05-15T11:09:51;7.10;;;4.45;;
78308;SDS011;67566;42.022;21.356;2023-05-15T11:12:18;9.30;;;3.58;;
78308;SDS011;67566;42.022;21.356;2023-05-15T11:17:18;8.63;;;3.55;;
78308;SDS011;67566;42.022;21.356;2023-05-15T11:22:19;7.70;;;3.90;;
78308;SDS011;67566;42.022;21.356;2023-05-15T11:24:50;9.20;;;4.50;;
78308;SDS011;67566;42.022;21.356;2023-05-15T11:27:23;9.45;;;4.20;;
78308;SDS011;67566;42.022;21.356;2023-05-15T11:32:54;6.03;;;3.85;;
78308;SDS011;67566;42.022;21.356;2023-05-15T11:35:32;8.50;;;3.83;;
78308;SDS011;67566;42.022;21.356;2023-05-15T11:38:03;7.15;;;4.18;;
78308;SDS011;67566;42.022;21.356;2023-05-15T11:40:45;7.88;;;3.78;;
78308;SDS011;67566;42.022;21.356;2023-05-15T11:45:50;6.47;;;3.45;;
78308;SDS011;67566;42.022;21.356;2023-05-15T11:48:19;9.80;;;4.45;;
78308;SDS011;67566;42.022;21.356;2023-05-15T11:50:45;5.40;;;3.55;;
78308;SDS011;67566;42.022;21.356;2023-05-15T11:53:11;6.43;;;3.45;;
78308;SDS011;67566;42.022;21.356;2023-05-15T11:55:38;5.93;;;3.22;;
78308;SDS011;67566;42.022;21.356;2023-05-15T11:58:09;8.38;;;3.50;;
78308;SDS011;67566;42.022;21.356;2023-05-15T12:00:37;9.05;;;3.53;;
78308;SDS011;67566;42.022;21.356;2023-05-15T12:03:03;5.93;;;3.58;;
78308;SDS011;67566;42.022;21.356;2023-05-15T12:05:29;5.38;;;3.65;;
78308;SDS011;67566;42.022;21.356;2023-05-15T12:07:55;5.35;;;3.42;;
78308;SDS011;67566;42.022;21.356;2023-05-15T12:10:21;8.52;;;4.72;;
78308;SDS011;67566;42.022;21.356;2023-05-15T12:12:47;7.30;;;3.67;;
78308;SDS011;67566;42.022;21.356;2023-05-15T12:15:13;7.28;;;3.95;;
78308;SDS011;67566;42.022;21.356;2023-05-15T12:17:41;8.27;;;3.50;;
78308;SDS011;67566;42.022;21.356;2023-05-15T12:20:14;8.43;;;3.47;;
78308;SDS011;67566;42.022;21.356;2023-05-15T12:22:41;7.38;;;4.05;;
78308;SDS011;67566;42.022;21.356;2023-05-15T12:25:07;9.90;;;4.15;;
78308;SDS011;67566;42.022;21.356;2023-05-15T12:27:35;7.75;;;3.67;;
78308;SDS011;67566;42.022;21.356;2023-05-15T12:30:02;6.25;;;3.63;;
78308;SDS011;67566;42.022;21.356;2023-05-15T12:32:35;7.10;;;4.00;;
78308;SDS011;67566;42.022;21.356;2023-05-15T12:35:01;6.05;;;4.10;;
78308;SDS011;67566;42.022;21.356;2023-05-15T12:37:32;8.57;;;3.30;;
78308;SDS011;67566;42.022;21.356;2023-05-15T12:40:00;8.70;;;4.22;;
78308;SDS011;67566;42.022;21.356;2023-05-15T12:42:37;8.00;;;4.47;;
78308;SDS011;67566;42.022;21.356;2023-05-15T12:45:10;7.68;;;3.72;;
78308;SDS011;67566;42.022;21.356;2023-05-15T12:47:40;7.50;;;4.53;;
78308;SDS011;67566;42.022;21.356;2023-05-15T12:50:14;6.93;;;3.67;;
78308;SDS011;67566;42.022;21.356;2023-05-15T12:52:50;5.50;;;3.08;;
78308;SDS011;67566;42.022;21.356;2023-05-15T12:55:21;7.80;;;3.60;;
78308;SDS011;67566;42.022;21.356;2023-05-15T12:58:01;5.57;;;3.92;;
78308;SDS011;67566;42.022;21.356;2023-05-15T13:00:32;8.48;;;3.70;;
78308;SDS011;67566;42.022;21.356;2023-05-15T13:02:59;9.07;;;4.55;;
78308;SDS011;67566;42.022;21.356;2023-05-15T13:05:25;6.50;;;4.10;;
78308;SDS011;67566;42.022;21.356;2023-05-15T13:07:51;6.78;;;4.35;;
78308;SDS011;67566;42.022;21.356;2023-05-15T13:10:19;6.85;;;4.20;;
78308;SDS011;67566;42.022;21.356;2023-05-15T13:12:47;5.95;;;3.83;;
78308;SDS011;67566;42.022;21.356;2023-05-15T13:18:09;9.20;;;3.58;;
78308;SDS011;67566;42.022;21.356;2023-05-15T13:20:39;7.53;;;3.78;;
78308;SDS011;67566;42.022;21.356;2023-05-15T13:23:13;8.23;;;3.33;;
78308;SDS011;67566;42.022;21.356;2023-05-15T13:25:40;5.28;;;3.55;;
78308;SDS011;67566;42.022;21.356;2023-05-15T13:28:08;5.63;;;3.20;;
78308;SDS011;67566;42.022;21.356;2023-05-15T13:30:35;5.78;;;3.55;;
78308;SDS011;67566;42.022;21.356;2023-05-15T13:33:00;6.65;;;3.70;;
78308;SDS011;67566;42.022;21.356;2023-05-15T13:35:26;5.72;;;3.90;;
78308;SDS011;67566;42.022;21.356;2023-05-15T13:37:52;8.02;;;3.90;;
78308;SDS011;67566;42.022;21.356;2023-05-15T13:40:18;7.32;;;3.92;;
78308;SDS011;67566;42.022;21.356;2023-05-15T13:42:44;5.15;;;3.72;;
78308;SDS011;67566;42.022;21.356;2023-05-15T13:45:10;6.03;;;3.40;;
78308;SDS011;67566;42.022;21.356;2023-05-15T13:47:38;10.18;;;3.67;;
78308;SDS011;67566;42.022;21.356;2023-05-15T13:50:04;6.38;;;3.83;;
78308;SDS011;67566;42.022;21.356;2023-05-15T13:54:59;8.52;;;3.63;;
78308;SDS011;67566;42.022;21.356;2023-05-15T13:57:24;5.03;;;3.10;;
78308;SDS011;67566;42.022;21.356;2023-05-15T13:59:50;4.28;;;3.15;;
78308;SDS011;67566;42.022;21.356;2023-05-15T14:02:16;9.90;;;3.45;;
78308;SDS011;67566;42.022;21.356;2023-05-15T14:04:42;7.35;;;3.85;;
78308;SDS011;67566;42.022;21.356;2023-05-15T14:07:07;6.18;;;3.60;;
78308;SDS011;67566;42.022;21.356;2023-05-15T14:09:33;8.07;;;3.60;;
78308;SDS011;67566;42.022;21.356;2023-05-15T14:11:58;6.53;;;3.58;;
78308;SDS011;67566;42.022;21.356;2023-05-15T14:14:24;8.07;;;3.15;;
78308;SDS011;67566;42.022;21.356;2023-05-15T14:16:49;9.57;;;4.18;;
78308;SDS011;67566;42.022;21.356;2023-05-15T14:19:15;7.82;;;3.90;;
78308;SDS011;67566;42.022;21.356;2023-05-15T14:21:40;6.18;;;3.33;;
78308;SDS011;67566;42.022;21.356;2023-05-15T14:24:06;10.20;;;4.20;;
78308;SDS011;67566;42.022;21.356;2023-05-15T14:26:32;6.32;;;3.63;;
78308;SDS011;67566;42.022;21.356;2023-05-15T14:28:57;5.95;;;3.28;;
78308;SDS011;67566;42.022;21.356;2023-05-15T14:31:23;7.72;;;3.53;;
78308;SDS011;67566;42.022;21.356;2023-05-15T14:33:49;6.47;;;3.42;;
78308;SDS011;67566;42.022;21.356;2023-05-15T14:36:15;8.88;;;3.58;;
78308;SDS011;67566;42.022;21.356;2023-05-15T14:38:40;6.05;;;3.80;;
78308;SDS011;67566;42.022;21.356;2023-05-15T14:41:11;7.30;;;3.15;;
78308;SDS011;67566;42.022;21.356;2023-05-15T14:43:37;9.40;;;3.83;;
78308;SDS011;67566;42.022;21.356;2023-05-15T14:46:03;10.52;;;3.80;;
78308;SDS011;67566;42.022;21.356;2023-05-15T14:48:29;11.25;;;4.38;;
78308;SDS011;67566;42.022;21.356;2023-05-15T14:50:55;7.20;;;4.15;;
78308;SDS011;67566;42.022;21.356;2023-05-15T14:53:21;5.63;;;4.05;;
78308;SDS011;67566;42.022;21.356;2023-05-15T14:55:46;10.10;;;4.03;;
78308;SDS011;67566;42.022;21.356;2023-05-15T14:58:12;7.97;;;3.55;;
78308;SDS011;67566;42.022;21.356;2023-05-15T15:00:38;7.30;;;3.47;;
78308;SDS011;67566;42.022;21.356;2023-05-15T15:03:03;8.70;;;3.60;;